sensor_id;sensor_type;location;lat;lon;timestamp;temperature;humidity
11256;HTU21D;5685;52.384;13.420;2022-11-15T00:02:26;21.10;93.70
11256;HTU21D;5685;52.384;13.420;2022-11-15T00:05:28;21.10;93.80
11256;HTU21D;5685;52.384;13.420;2022-11-15T00:08:31;21.10;93.70
11256;HTU21D;5685;52.384;13.420;2022-11-15T00:11:35;21.10;93.90
11256;HTU21D;5685;52.384;13.420;2022-11-15T00:14:37;21.10;94.00
11256;HTU21D;5685;52.384;13.420;2022-11-15T00:17:40;21.00;93.80
11256;HTU21D;5685;52.384;13.420;2022-11-15T00:20:42;21.00;94.00
11256;HTU21D;5685;52.384;13.420;2022-11-15T00:23:45;21.00;93.90
11256;HTU21D;5685;52.384;13.420;2022-11-15T00:26:48;21.00;93.90
11256;HTU21D;5685;52.384;13.420;2022-11-15T00:29:51;21.00;93.80
11256;HTU21D;5685;52.384;13.420;2022-11-15T00:32:53;21.00;93.70
11256;HTU21D;5685;52.384;13.420;2022-11-15T00:36:00;21.00;93.60
11256;HTU21D;5685;52.384;13.420;2022-11-15T00:39:03;21.00;93.70
11256;HTU21D;5685;52.384;13.420;2022-11-15T00:42:08;21.00;93.50
11256;HTU21D;5685;52.384;13.420;2022-11-15T00:45:10;21.00;93.60
11256;HTU21D;5685;52.384;13.420;2022-11-15T00:48:12;20.90;93.50
11256;HTU21D;5685;52.384;13.420;2022-11-15T00:51:14;20.90;93.50
11256;HTU21D;5685;52.384;13.420;2022-11-15T00:54:17;20.90;93.70
11256;HTU21D;5685;52.384;13.420;2022-11-15T00:57:21;20.90;93.50
11256;HTU21D;5685;52.384;13.420;2022-11-15T01:00:23;20.90;93.50
11256;HTU21D;5685;52.384;13.420;2022-11-15T01:03:25;20.80;93.40
11256;HTU21D;5685;52.384;13.420;2022-11-15T01:06:27;20.80;93.30
11256;HTU21D;5685;52.384;13.420;2022-11-15T01:09:30;20.80;93.30
11256;HTU21D;5685;52.384;13.420;2022-11-15T01:12:33;20.80;93.30
11256;HTU21D;5685;52.384;13.420;2022-11-15T01:15:39;20.80;93.20
11256;HTU21D;5685;52.384;13.420;2022-11-15T01:18:42;20.80;93.20
11256;HTU21D;5685;52.384;13.420;2022-11-15T01:21:45;20.80;93.20
11256;HTU21D;5685;52.384;13.420;2022-11-15T01:24:49;20.80;93.20
11256;HTU21D;5685;52.384;13.420;2022-11-15T01:27:53;20.70;93.30
11256;HTU21D;5685;52.384;13.420;2022-11-15T01:30:58;20.70;93.60
11256;HTU21D;5685;52.384;13.420;2022-11-15T01:34:01;20.70;93.20
11256;HTU21D;5685;52.384;13.420;2022-11-15T01:37:03;20.70;93.10
11256;HTU21D;5685;52.384;13.420;2022-11-15T01:40:06;20.70;93.20
11256;HTU21D;5685;52.384;13.420;2022-11-15T01:43:24;20.60;93.20
11256;HTU21D;5685;52.384;13.420;2022-11-15T01:46:30;20.60;93.10
11256;HTU21D;5685;52.384;13.420;2022-11-15T01:49:38;20.60;93.30
11256;HTU21D;5685;52.384;13.420;2022-11-15T01:52:41;20.60;93.90
11256;HTU21D;5685;52.384;13.420;2022-11-15T01:55:44;20.60;93.70
11256;HTU21D;5685;52.384;13.420;2022-11-15T01:58:48;20.50;93.70
11256;HTU21D;5685;52.384;13.420;2022-11-15T02:01:52;20.50;93.70
11256;HTU21D;5685;52.384;13.420;2022-11-15T02:04:54;20.50;93.90
11256;HTU21D;5685;52.384;13.420;2022-11-15T02:07:56;20.60;93.90
11256;HTU21D;5685;52.384;13.420;2022-11-15T02:10:59;20.50;93.70
11256;HTU21D;5685;52.384;13.420;2022-11-15T02:14:03;20.50;93.80
11256;HTU21D;5685;52.384;13.420;2022-11-15T02:17:18;20.50;93.80
11256;HTU21D;5685;52.384;13.420;2022-11-15T02:24:36;20.50;93.50
11256;HTU21D;5685;52.384;13.420;2022-11-15T02:28:16;20.50;93.40
11256;HTU21D;5685;52.384;13.420;2022-11-15T02:31:43;20.50;93.40
11256;HTU21D;5685;52.384;13.420;2022-11-15T02:34:54;20.40;93.30
11256;HTU21D;5685;52.384;13.420;2022-11-15T02:38:08;20.40;93.30
11256;HTU21D;5685;52.384;13.420;2022-11-15T02:41:16;20.40;93.30
11256;HTU21D;5685;52.384;13.420;2022-11-15T02:44:23;20.40;93.20
11256;HTU21D;5685;52.384;13.420;2022-11-15T02:47:28;20.40;93.30
11256;HTU21D;5685;52.384;13.420;2022-11-15T02:50:33;20.30;93.20
11256;HTU21D;5685;52.384;13.420;2022-11-15T02:53:35;20.30;93.20
11256;HTU21D;5685;52.384;13.420;2022-11-15T02:56:37;20.30;93.20
11256;HTU21D;5685;52.384;13.420;2022-11-15T03:00:01;20.30;93.20
11256;HTU21D;5685;52.384;13.420;2022-11-15T03:03:24;20.30;93.20
11256;HTU21D;5685;52.384;13.420;2022-11-15T03:06:37;20.30;93.10
11256;HTU21D;5685;52.384;13.420;2022-11-15T03:09:49;20.30;93.10
11256;HTU21D;5685;52.384;13.420;2022-11-15T03:12:57;20.20;93.20
11256;HTU21D;5685;52.384;13.420;2022-11-15T03:16:04;20.20;93.20
11256;HTU21D;5685;52.384;13.420;2022-11-15T03:19:14;20.20;93.10
11256;HTU21D;5685;52.384;13.420;2022-11-15T03:22:24;20.20;93.10
11256;HTU21D;5685;52.384;13.420;2022-11-15T03:25:29;20.20;93.20
11256;HTU21D;5685;52.384;13.420;2022-11-15T03:28:35;20.20;93.60
11256;HTU21D;5685;52.384;13.420;2022-11-15T03:31:41;20.20;93.40
11256;HTU21D;5685;52.384;13.420;2022-11-15T03:34:53;20.10;93.40
11256;HTU21D;5685;52.384;13.420;2022-11-15T03:38:03;20.10;93.40
11256;HTU21D;5685;52.384;13.420;2022-11-15T03:41:15;20.10;93.30
11256;HTU21D;5685;52.384;13.420;2022-11-15T03:44:31;20.10;93.50
11256;HTU21D;5685;52.384;13.420;2022-11-15T03:47:41;20.10;93.70
11256;HTU21D;5685;52.384;13.420;2022-11-15T03:50:47;20.10;93.30
11256;HTU21D;5685;52.384;13.420;2022-11-15T03:53:50;20.10;93.50
11256;HTU21D;5685;52.384;13.420;2022-11-15T03:56:53;20.00;93.40
11256;HTU21D;5685;52.384;13.420;2022-11-15T03:59:55;20.00;93.30
11256;HTU21D;5685;52.384;13.420;2022-11-15T04:02:57;20.00;93.10
11256;HTU21D;5685;52.384;13.420;2022-11-15T04:06:01;20.00;93.30
11256;HTU21D;5685;52.384;13.420;2022-11-15T04:09:03;20.00;93.30
11256;HTU21D;5685;52.384;13.420;2022-11-15T04:12:06;20.00;93.00
11256;HTU21D;5685;52.384;13.420;2022-11-15T04:15:10;20.00;93.10
11256;HTU21D;5685;52.384;13.420;2022-11-15T04:18:13;19.90;93.40
11256;HTU21D;5685;52.384;13.420;2022-11-15T04:21:17;19.90;93.10
11256;HTU21D;5685;52.384;13.420;2022-11-15T04:24:36;19.90;93.50
11256;HTU21D;5685;52.384;13.420;2022-11-15T04:27:39;19.90;93.40
11256;HTU21D;5685;52.384;13.420;2022-11-15T04:30:41;19.90;93.40
11256;HTU21D;5685;52.384;13.420;2022-11-15T04:33:43;19.90;93.20
11256;HTU21D;5685;52.384;13.420;2022-11-15T04:36:47;19.90;93.10
11256;HTU21D;5685;52.384;13.420;2022-11-15T04:40:08;19.90;93.10
11256;HTU21D;5685;52.384;13.420;2022-11-15T04:43:10;19.90;93.10
11256;HTU21D;5685;52.384;13.420;2022-11-15T04:46:13;19.90;93.10
11256;HTU21D;5685;52.384;13.420;2022-11-15T04:49:15;19.80;93.10
11256;HTU21D;5685;52.384;13.420;2022-11-15T04:52:19;19.80;93.10
11256;HTU21D;5685;52.384;13.420;2022-11-15T04:55:21;19.80;93.00
11256;HTU21D;5685;52.384;13.420;2022-11-15T04:58:24;19.80;93.10
11256;HTU21D;5685;52.384;13.420;2022-11-15T05:01:27;19.80;93.00
11256;HTU21D;5685;52.384;13.420;2022-11-15T05:04:29;19.80;93.00
11256;HTU21D;5685;52.384;13.420;2022-11-15T05:07:32;19.80;93.00
11256;HTU21D;5685;52.384;13.420;2022-11-15T05:10:34;19.80;93.00
11256;HTU21D;5685;52.384;13.420;2022-11-15T05:13:37;19.80;93.00
11256;HTU21D;5685;52.384;13.420;2022-11-15T05:16:39;19.80;93.00
11256;HTU21D;5685;52.384;13.420;2022-11-15T05:19:41;19.80;93.00
11256;HTU21D;5685;52.384;13.420;2022-11-15T05:22:46;19.80;93.00
11256;HTU21D;5685;52.384;13.420;2022-11-15T05:25:49;19.70;93.00
11256;HTU21D;5685;52.384;13.420;2022-11-15T05:28:55;19.70;93.00
11256;HTU21D;5685;52.384;13.420;2022-11-15T05:31:58;19.70;93.00
11256;HTU21D;5685;52.384;13.420;2022-11-15T05:35:00;19.70;93.00
11256;HTU21D;5685;52.384;13.420;2022-11-15T05:38:04;19.70;93.00
11256;HTU21D;5685;52.384;13.420;2022-11-15T05:41:07;19.70;93.00
11256;HTU21D;5685;52.384;13.420;2022-11-15T05:44:11;19.70;93.10
11256;HTU21D;5685;52.384;13.420;2022-11-15T05:47:18;19.70;93.10
11256;HTU21D;5685;52.384;13.420;2022-11-15T05:50:21;19.70;93.10
11256;HTU21D;5685;52.384;13.420;2022-11-15T05:53:26;19.70;93.20
11256;HTU21D;5685;52.384;13.420;2022-11-15T05:56:29;19.70;93.20
11256;HTU21D;5685;52.384;13.420;2022-11-15T05:59:32;19.70;93.10
11256;HTU21D;5685;52.384;13.420;2022-11-15T06:02:35;19.70;93.10
11256;HTU21D;5685;52.384;13.420;2022-11-15T06:05:37;19.70;93.10
11256;HTU21D;5685;52.384;13.420;2022-11-15T06:08:41;19.70;93.10
11256;HTU21D;5685;52.384;13.420;2022-11-15T06:11:43;19.70;93.10
11256;HTU21D;5685;52.384;13.420;2022-11-15T06:14:46;19.70;93.40
11256;HTU21D;5685;52.384;13.420;2022-11-15T06:17:48;19.70;93.00
11256;HTU21D;5685;52.384;13.420;2022-11-15T06:38:08;19.70;92.90
11256;HTU21D;5685;52.384;13.420;2022-11-15T06:41:12;19.70;92.90
11256;HTU21D;5685;52.384;13.420;2022-11-15T06:44:15;19.60;92.80
11256;HTU21D;5685;52.384;13.420;2022-11-15T06:47:17;19.70;92.80
11256;HTU21D;5685;52.384;13.420;2022-11-15T06:50:20;19.60;92.80
11256;HTU21D;5685;52.384;13.420;2022-11-15T06:53:24;19.60;92.70
11256;HTU21D;5685;52.384;13.420;2022-11-15T06:56:26;19.60;92.70
11256;HTU21D;5685;52.384;13.420;2022-11-15T06:59:29;19.70;92.80
11256;HTU21D;5685;52.384;13.420;2022-11-15T07:02:31;19.60;92.70
11256;HTU21D;5685;52.384;13.420;2022-11-15T07:05:34;19.60;92.70
11256;HTU21D;5685;52.384;13.420;2022-11-15T07:08:38;19.60;92.70
11256;HTU21D;5685;52.384;13.420;2022-11-15T07:11:42;19.60;92.70
11256;HTU21D;5685;52.384;13.420;2022-11-15T07:14:44;19.60;92.60
11256;HTU21D;5685;52.384;13.420;2022-11-15T07:17:47;19.60;92.60
11256;HTU21D;5685;52.384;13.420;2022-11-15T07:20:49;19.60;92.60
11256;HTU21D;5685;52.384;13.420;2022-11-15T07:23:53;19.60;92.70
11256;HTU21D;5685;52.384;13.420;2022-11-15T07:26:55;19.60;92.60
11256;HTU21D;5685;52.384;13.420;2022-11-15T07:29:57;19.60;92.60
11256;HTU21D;5685;52.384;13.420;2022-11-15T07:33:00;19.60;92.60
11256;HTU21D;5685;52.384;13.420;2022-11-15T07:36:04;19.60;92.60
11256;HTU21D;5685;52.384;13.420;2022-11-15T07:39:09;19.60;92.60
11256;HTU21D;5685;52.384;13.420;2022-11-15T07:42:12;19.60;92.60
11256;HTU21D;5685;52.384;13.420;2022-11-15T07:45:32;19.60;92.60
11256;HTU21D;5685;52.384;13.420;2022-11-15T07:48:35;19.60;92.60
11256;HTU21D;5685;52.384;13.420;2022-11-15T07:51:37;19.60;92.70
11256;HTU21D;5685;52.384;13.420;2022-11-15T07:54:41;19.60;92.60
11256;HTU21D;5685;52.384;13.420;2022-11-15T07:57:43;19.60;92.50
11256;HTU21D;5685;52.384;13.420;2022-11-15T08:00:46;19.60;92.60
11256;HTU21D;5685;52.384;13.420;2022-11-15T08:03:48;19.60;92.60
11256;HTU21D;5685;52.384;13.420;2022-11-15T08:06:51;19.60;92.60
11256;HTU21D;5685;52.384;13.420;2022-11-15T08:09:55;19.60;92.60
11256;HTU21D;5685;52.384;13.420;2022-11-15T08:12:58;19.60;92.60
11256;HTU21D;5685;52.384;13.420;2022-11-15T08:16:02;19.60;92.60
11256;HTU21D;5685;52.384;13.420;2022-11-15T08:19:05;19.60;92.60
11256;HTU21D;5685;52.384;13.420;2022-11-15T08:22:07;19.60;92.60
11256;HTU21D;5685;52.384;13.420;2022-11-15T08:25:11;19.60;92.60
11256;HTU21D;5685;52.384;13.420;2022-11-15T08:28:16;19.60;92.60
11256;HTU21D;5685;52.384;13.420;2022-11-15T08:31:19;19.60;92.60
11256;HTU21D;5685;52.384;13.420;2022-11-15T08:34:21;19.60;92.60
11256;HTU21D;5685;52.384;13.420;2022-11-15T08:37:24;19.60;92.70
11256;HTU21D;5685;52.384;13.420;2022-11-15T08:40:27;19.60;92.60
11256;HTU21D;5685;52.384;13.420;2022-11-15T08:43:30;19.60;92.70
11256;HTU21D;5685;52.384;13.420;2022-11-15T08:46:32;19.60;92.70
11256;HTU21D;5685;52.384;13.420;2022-11-15T08:49:34;19.60;92.70
11256;HTU21D;5685;52.384;13.420;2022-11-15T08:52:36;19.60;92.70
11256;HTU21D;5685;52.384;13.420;2022-11-15T08:55:40;19.60;92.70
11256;HTU21D;5685;52.384;13.420;2022-11-15T08:58:43;19.60;92.70
11256;HTU21D;5685;52.384;13.420;2022-11-15T09:01:45;19.60;92.70
11256;HTU21D;5685;52.384;13.420;2022-11-15T09:04:48;19.60;92.70
11256;HTU21D;5685;52.384;13.420;2022-11-15T09:07:53;19.60;92.80
11256;HTU21D;5685;52.384;13.420;2022-11-15T09:10:57;19.60;92.80
11256;HTU21D;5685;52.384;13.420;2022-11-15T09:13:59;19.60;92.80
11256;HTU21D;5685;52.384;13.420;2022-11-15T09:17:02;19.60;93.10
11256;HTU21D;5685;52.384;13.420;2022-11-15T09:20:06;19.60;92.80
11256;HTU21D;5685;52.384;13.420;2022-11-15T09:23:09;19.60;92.80
11256;HTU21D;5685;52.384;13.420;2022-11-15T09:26:13;19.60;92.90
11256;HTU21D;5685;52.384;13.420;2022-11-15T09:29:15;19.60;92.90
11256;HTU21D;5685;52.384;13.420;2022-11-15T09:32:17;19.60;92.90
11256;HTU21D;5685;52.384;13.420;2022-11-15T09:35:20;19.60;92.90
11256;HTU21D;5685;52.384;13.420;2022-11-15T09:38:22;19.60;93.00
11256;HTU21D;5685;52.384;13.420;2022-11-15T09:45:15;19.60;93.00
11256;HTU21D;5685;52.384;13.420;2022-11-15T09:48:45;19.70;93.10
11256;HTU21D;5685;52.384;13.420;2022-11-15T09:51:52;19.70;93.20
11256;HTU21D;5685;52.384;13.420;2022-11-15T09:54:55;19.70;93.20
11256;HTU21D;5685;52.384;13.420;2022-11-15T09:58:03;19.70;93.20
11256;HTU21D;5685;52.384;13.420;2022-11-15T10:01:16;19.70;93.30
11256;HTU21D;5685;52.384;13.420;2022-11-15T10:04:20;19.70;93.40
11256;HTU21D;5685;52.384;13.420;2022-11-15T10:07:27;19.70;93.40
11256;HTU21D;5685;52.384;13.420;2022-11-15T10:10:38;19.70;93.40
11256;HTU21D;5685;52.384;13.420;2022-11-15T10:13:45;19.70;93.80
11256;HTU21D;5685;52.384;13.420;2022-11-15T10:20:48;19.70;93.60
11256;HTU21D;5685;52.384;13.420;2022-11-15T10:23:51;19.70;93.60
11256;HTU21D;5685;52.384;13.420;2022-11-15T10:26:55;19.70;93.60
11256;HTU21D;5685;52.384;13.420;2022-11-15T10:29:58;19.70;93.70
11256;HTU21D;5685;52.384;13.420;2022-11-15T10:33:23;19.70;93.70
11256;HTU21D;5685;52.384;13.420;2022-11-15T10:36:27;19.70;93.80
11256;HTU21D;5685;52.384;13.420;2022-11-15T10:39:29;19.80;93.90
11256;HTU21D;5685;52.384;13.420;2022-11-15T10:42:33;19.80;93.90
11256;HTU21D;5685;52.384;13.420;2022-11-15T10:45:37;19.80;94.00
11256;HTU21D;5685;52.384;13.420;2022-11-15T10:48:39;19.80;94.00
11256;HTU21D;5685;52.384;13.420;2022-11-15T10:51:45;19.80;94.10
11256;HTU21D;5685;52.384;13.420;2022-11-15T10:54:51;19.80;94.20
11256;HTU21D;5685;52.384;13.420;2022-11-15T10:57:59;19.80;94.20
11256;HTU21D;5685;52.384;13.420;2022-11-15T11:01:14;19.80;94.20
11256;HTU21D;5685;52.384;13.420;2022-11-15T11:04:17;19.80;94.30
11256;HTU21D;5685;52.384;13.420;2022-11-15T11:07:22;19.80;94.30
11256;HTU21D;5685;52.384;13.420;2022-11-15T11:10:25;19.90;94.40
11256;HTU21D;5685;52.384;13.420;2022-11-15T11:13:30;19.90;94.50
11256;HTU21D;5685;52.384;13.420;2022-11-15T11:16:42;19.90;94.50
11256;HTU21D;5685;52.384;13.420;2022-11-15T11:19:57;19.90;94.50
11256;HTU21D;5685;52.384;13.420;2022-11-15T11:23:17;19.90;94.60
11256;HTU21D;5685;52.384;13.420;2022-11-15T11:26:42;19.90;94.60
11256;HTU21D;5685;52.384;13.420;2022-11-15T11:30:00;19.90;94.70
11256;HTU21D;5685;52.384;13.420;2022-11-15T11:33:12;19.90;94.70
11256;HTU21D;5685;52.384;13.420;2022-11-15T11:36:24;19.90;94.80
11256;HTU21D;5685;52.384;13.420;2022-11-15T11:39:34;19.90;95.30
11256;HTU21D;5685;52.384;13.420;2022-11-15T11:42:51;20.00;95.00
11256;HTU21D;5685;52.384;13.420;2022-11-15T11:49:44;20.00;94.90
11256;HTU21D;5685;52.384;13.420;2022-11-15T11:52:56;20.00;95.10
11256;HTU21D;5685;52.384;13.420;2022-11-15T11:56:03;20.00;95.10
11256;HTU21D;5685;52.384;13.420;2022-11-15T11:59:13;20.00;95.20
11256;HTU21D;5685;52.384;13.420;2022-11-15T12:02:27;20.00;95.20
11256;HTU21D;5685;52.384;13.420;2022-11-15T12:05:35;20.00;95.20
11256;HTU21D;5685;52.384;13.420;2022-11-15T12:08:45;20.00;95.20
11256;HTU21D;5685;52.384;13.420;2022-11-15T12:11:55;20.10;95.30
11256;HTU21D;5685;52.384;13.420;2022-11-15T12:15:03;20.10;95.40
11256;HTU21D;5685;52.384;13.420;2022-11-15T12:18:14;20.10;95.40
11256;HTU21D;5685;52.384;13.420;2022-11-15T12:21:24;20.10;95.50
11256;HTU21D;5685;52.384;13.420;2022-11-15T12:24:34;20.10;95.50
11256;HTU21D;5685;52.384;13.420;2022-11-15T12:27:42;20.20;95.50
11256;HTU21D;5685;52.384;13.420;2022-11-15T12:30:50;20.10;95.50
11256;HTU21D;5685;52.384;13.420;2022-11-15T12:33:56;20.20;95.60
11256;HTU21D;5685;52.384;13.420;2022-11-15T12:37:00;20.20;95.60
11256;HTU21D;5685;52.384;13.420;2022-11-15T12:40:17;20.20;95.80
11256;HTU21D;5685;52.384;13.420;2022-11-15T12:43:38;20.20;95.80
11256;HTU21D;5685;52.384;13.420;2022-11-15T12:47:03;20.20;95.80
11256;HTU21D;5685;52.384;13.420;2022-11-15T12:50:12;20.20;95.80
11256;HTU21D;5685;52.384;13.420;2022-11-15T12:53:31;20.20;95.80
11256;HTU21D;5685;52.384;13.420;2022-11-15T12:56:35;20.20;95.80
11256;HTU21D;5685;52.384;13.420;2022-11-15T12:59:50;20.30;95.80
11256;HTU21D;5685;52.384;13.420;2022-11-15T13:03:17;20.30;95.80
11256;HTU21D;5685;52.384;13.420;2022-11-15T13:06:38;20.30;95.80
11256;HTU21D;5685;52.384;13.420;2022-11-15T13:09:54;20.30;95.80
11256;HTU21D;5685;52.384;13.420;2022-11-15T13:12:58;20.30;95.90
11256;HTU21D;5685;52.384;13.420;2022-11-15T13:16:01;20.30;95.90
11256;HTU21D;5685;52.384;13.420;2022-11-15T13:19:04;20.30;95.90
11256;HTU21D;5685;52.384;13.420;2022-11-15T13:22:09;20.40;95.90
11256;HTU21D;5685;52.384;13.420;2022-11-15T13:26:06;20.40;95.90
11256;HTU21D;5685;52.384;13.420;2022-11-15T13:29:17;20.40;95.90
11256;HTU21D;5685;52.384;13.420;2022-11-15T13:32:20;20.40;95.90
11256;HTU21D;5685;52.384;13.420;2022-11-15T13:35:25;20.40;95.90
11256;HTU21D;5685;52.384;13.420;2022-11-15T13:38:30;20.40;95.90
11256;HTU21D;5685;52.384;13.420;2022-11-15T13:41:36;20.40;95.90
11256;HTU21D;5685;52.384;13.420;2022-11-15T13:44:55;20.40;95.90
11256;HTU21D;5685;52.384;13.420;2022-11-15T13:47:58;20.50;95.90
11256;HTU21D;5685;52.384;13.420;2022-11-15T13:51:01;20.50;96.00
11256;HTU21D;5685;52.384;13.420;2022-11-15T13:54:16;20.50;96.00
11256;HTU21D;5685;52.384;13.420;2022-11-15T13:57:25;20.50;95.90
11256;HTU21D;5685;52.384;13.420;2022-11-15T14:00:36;20.50;95.90
11256;HTU21D;5685;52.384;13.420;2022-11-15T14:03:47;20.50;95.90
11256;HTU21D;5685;52.384;13.420;2022-11-15T14:06:57;20.50;95.90
11256;HTU21D;5685;52.384;13.420;2022-11-15T14:10:24;20.60;96.00
11256;HTU21D;5685;52.384;13.420;2022-11-15T14:13:31;20.60;96.00
11256;HTU21D;5685;52.384;13.420;2022-11-15T14:16:35;20.60;96.00
11256;HTU21D;5685;52.384;13.420;2022-11-15T14:19:39;20.60;96.00
11256;HTU21D;5685;52.384;13.420;2022-11-15T14:22:51;20.60;95.90
11256;HTU21D;5685;52.384;13.420;2022-11-15T14:25:55;20.60;95.90
11256;HTU21D;5685;52.384;13.420;2022-11-15T14:29:24;20.60;95.90
11256;HTU21D;5685;52.384;13.420;2022-11-15T14:32:28;20.60;95.90
11256;HTU21D;5685;52.384;13.420;2022-11-15T14:35:33;20.60;95.90
11256;HTU21D;5685;52.384;13.420;2022-11-15T14:38:40;20.60;95.90
11256;HTU21D;5685;52.384;13.420;2022-11-15T14:41:43;20.70;95.90
11256;HTU21D;5685;52.384;13.420;2022-11-15T14:44:47;20.70;95.90
11256;HTU21D;5685;52.384;13.420;2022-11-15T14:47:50;20.70;95.90
11256;HTU21D;5685;52.384;13.420;2022-11-15T14:50:52;20.70;95.90
11256;HTU21D;5685;52.384;13.420;2022-11-15T14:53:54;20.70;95.90
11256;HTU21D;5685;52.384;13.420;2022-11-15T14:56:56;20.70;95.90
11256;HTU21D;5685;52.384;13.420;2022-11-15T15:00:00;20.70;95.90
11256;HTU21D;5685;52.384;13.420;2022-11-15T15:03:04;20.70;95.80
11256;HTU21D;5685;52.384;13.420;2022-11-15T15:06:07;20.70;95.80
11256;HTU21D;5685;52.384;13.420;2022-11-15T15:09:10;20.70;95.80
11256;HTU21D;5685;52.384;13.420;2022-11-15T15:12:16;20.80;95.80
11256;HTU21D;5685;52.384;13.420;2022-11-15T15:15:24;20.80;95.80
11256;HTU21D;5685;52.384;13.420;2022-11-15T15:18:28;20.80;95.80
11256;HTU21D;5685;52.384;13.420;2022-11-15T15:21:30;20.80;95.80
11256;HTU21D;5685;52.384;13.420;2022-11-15T15:24:33;20.80;95.80
11256;HTU21D;5685;52.384;13.420;2022-11-15T15:27:35;20.80;95.80
11256;HTU21D;5685;52.384;13.420;2022-11-15T15:30:39;20.80;95.80
11256;HTU21D;5685;52.384;13.420;2022-11-15T15:33:41;20.80;95.80
11256;HTU21D;5685;52.384;13.420;2022-11-15T15:36:43;20.80;95.80
11256;HTU21D;5685;52.384;13.420;2022-11-15T15:39:45;20.80;95.80
11256;HTU21D;5685;52.384;13.420;2022-11-15T15:42:48;20.80;95.80
11256;HTU21D;5685;52.384;13.420;2022-11-15T15:45:52;20.80;95.80
11256;HTU21D;5685;52.384;13.420;2022-11-15T15:48:54;20.80;95.80
11256;HTU21D;5685;52.384;13.420;2022-11-15T15:51:57;20.80;95.80
11256;HTU21D;5685;52.384;13.420;2022-11-15T15:54:59;20.80;95.80
11256;HTU21D;5685;52.384;13.420;2022-11-15T15:58:02;20.90;95.80
11256;HTU21D;5685;52.384;13.420;2022-11-15T16:01:06;20.90;95.80
11256;HTU21D;5685;52.384;13.420;2022-11-15T16:04:08;20.90;95.80
11256;HTU21D;5685;52.384;13.420;2022-11-15T16:07:16;20.90;95.80
11256;HTU21D;5685;52.384;13.420;2022-11-15T16:10:25;20.90;95.80
11256;HTU21D;5685;52.384;13.420;2022-11-15T16:13:29;20.90;95.80
11256;HTU21D;5685;52.384;13.420;2022-11-15T16:16:32;20.90;95.80
11256;HTU21D;5685;52.384;13.420;2022-11-15T16:19:35;20.90;95.80
11256;HTU21D;5685;52.384;13.420;2022-11-15T16:22:38;20.90;95.80
11256;HTU21D;5685;52.384;13.420;2022-11-15T16:25:42;20.90;95.80
11256;HTU21D;5685;52.384;13.420;2022-11-15T16:28:48;20.90;95.80
11256;HTU21D;5685;52.384;13.420;2022-11-15T16:31:52;20.90;95.80
11256;HTU21D;5685;52.384;13.420;2022-11-15T16:34:54;21.00;95.80
11256;HTU21D;5685;52.384;13.420;2022-11-15T16:37:57;21.00;95.80
11256;HTU21D;5685;52.384;13.420;2022-11-15T16:40:59;21.00;95.80
11256;HTU21D;5685;52.384;13.420;2022-11-15T16:44:01;21.00;95.80
11256;HTU21D;5685;52.384;13.420;2022-11-15T16:47:09;21.00;95.90
11256;HTU21D;5685;52.384;13.420;2022-11-15T16:50:20;21.00;95.90
11256;HTU21D;5685;52.384;13.420;2022-11-15T16:53:23;21.00;95.90
11256;HTU21D;5685;52.384;13.420;2022-11-15T16:56:27;21.00;95.90
11256;HTU21D;5685;52.384;13.420;2022-11-15T16:59:30;21.00;95.90
11256;HTU21D;5685;52.384;13.420;2022-11-15T17:02:34;21.00;96.00
11256;HTU21D;5685;52.384;13.420;2022-11-15T17:05:36;21.00;96.10
11256;HTU21D;5685;52.384;13.420;2022-11-15T17:08:39;21.10;96.10
11256;HTU21D;5685;52.384;13.420;2022-11-15T17:11:41;21.10;96.20
11256;HTU21D;5685;52.384;13.420;2022-11-15T17:14:44;21.10;96.20
11256;HTU21D;5685;52.384;13.420;2022-11-15T17:17:52;21.10;96.30
11256;HTU21D;5685;52.384;13.420;2022-11-15T17:20:55;21.10;96.30
11256;HTU21D;5685;52.384;13.420;2022-11-15T17:23:58;21.10;96.40
11256;HTU21D;5685;52.384;13.420;2022-11-15T17:27:00;21.10;96.40
11256;HTU21D;5685;52.384;13.420;2022-11-15T17:30:04;21.10;96.40
11256;HTU21D;5685;52.384;13.420;2022-11-15T17:33:09;21.10;96.40
11256;HTU21D;5685;52.384;13.420;2022-11-15T17:36:11;21.10;96.40
11256;HTU21D;5685;52.384;13.420;2022-11-15T17:39:14;21.10;96.40
11256;HTU21D;5685;52.384;13.420;2022-11-15T17:42:18;21.10;96.40
11256;HTU21D;5685;52.384;13.420;2022-11-15T17:45:20;21.10;96.40
11256;HTU21D;5685;52.384;13.420;2022-11-15T17:48:24;21.20;96.40
11256;HTU21D;5685;52.384;13.420;2022-11-15T17:51:26;21.20;96.40
11256;HTU21D;5685;52.384;13.420;2022-11-15T17:54:29;21.20;96.40
11256;HTU21D;5685;52.384;13.420;2022-11-15T17:57:31;21.20;96.40
11256;HTU21D;5685;52.384;13.420;2022-11-15T18:00:33;21.20;96.40
11256;HTU21D;5685;52.384;13.420;2022-11-15T18:03:38;21.20;96.40
11256;HTU21D;5685;52.384;13.420;2022-11-15T18:06:41;21.20;96.40
11256;HTU21D;5685;52.384;13.420;2022-11-15T18:09:43;21.20;96.70
11256;HTU21D;5685;52.384;13.420;2022-11-15T18:12:46;21.20;96.30
11256;HTU21D;5685;52.384;13.420;2022-11-15T18:15:52;21.30;96.30
11256;HTU21D;5685;52.384;13.420;2022-11-15T18:18:58;21.20;96.30
11256;HTU21D;5685;52.384;13.420;2022-11-15T18:22:00;21.30;96.30
11256;HTU21D;5685;52.384;13.420;2022-11-15T18:25:05;21.30;96.30
11256;HTU21D;5685;52.384;13.420;2022-11-15T18:28:08;21.30;96.20
11256;HTU21D;5685;52.384;13.420;2022-11-15T18:31:13;21.30;96.20
11256;HTU21D;5685;52.384;13.420;2022-11-15T18:34:17;21.30;96.20
11256;HTU21D;5685;52.384;13.420;2022-11-15T18:37:19;21.30;96.20
11256;HTU21D;5685;52.384;13.420;2022-11-15T18:40:22;21.30;96.20
11256;HTU21D;5685;52.384;13.420;2022-11-15T18:43:27;21.30;96.20
11256;HTU21D;5685;52.384;13.420;2022-11-15T18:46:31;21.30;96.20
11256;HTU21D;5685;52.384;13.420;2022-11-15T18:49:34;21.30;96.10
11256;HTU21D;5685;52.384;13.420;2022-11-15T18:52:37;21.30;96.10
11256;HTU21D;5685;52.384;13.420;2022-11-15T18:55:39;21.30;96.10
11256;HTU21D;5685;52.384;13.420;2022-11-15T18:58:43;21.30;96.10
11256;HTU21D;5685;52.384;13.420;2022-11-15T19:01:46;21.30;96.00
11256;HTU21D;5685;52.384;13.420;2022-11-15T19:04:50;21.30;96.00
11256;HTU21D;5685;52.384;13.420;2022-11-15T19:07:53;21.40;96.00
11256;HTU21D;5685;52.384;13.420;2022-11-15T19:10:55;21.30;95.90
11256;HTU21D;5685;52.384;13.420;2022-11-15T19:13:59;21.40;96.00
11256;HTU21D;5685;52.384;13.420;2022-11-15T19:17:03;21.40;96.00
11256;HTU21D;5685;52.384;13.420;2022-11-15T19:20:08;21.40;95.90
11256;HTU21D;5685;52.384;13.420;2022-11-15T19:23:11;21.40;95.90
11256;HTU21D;5685;52.384;13.420;2022-11-15T19:26:14;21.40;95.90
11256;HTU21D;5685;52.384;13.420;2022-11-15T19:29:17;21.40;95.80
11256;HTU21D;5685;52.384;13.420;2022-11-15T19:32:19;21.40;95.80
11256;HTU21D;5685;52.384;13.420;2022-11-15T19:35:23;21.40;95.80
11256;HTU21D;5685;52.384;13.420;2022-11-15T19:38:26;21.40;95.80
11256;HTU21D;5685;52.384;13.420;2022-11-15T19:41:28;21.40;95.80
11256;HTU21D;5685;52.384;13.420;2022-11-15T19:44:31;21.40;95.70
11256;HTU21D;5685;52.384;13.420;2022-11-15T19:47:33;21.40;95.70